Time;durP1;ratioP1;P1;durP2;ratioP2;P2;SDS_P1;SDS_P2;PMS_P1;PMS_P2;Temp;Humidity;BMP_temperature;BMP_pressure;BME280_temperature;BME280_humidity;BME280_pressure;Samples;Min_cycle;Max_cycle;Signal;HPM_P1;HPM_P2
2021/07/03 00:00:47;;;;;;;7.90;3.28;;;;;;;;;;8324748;28;20359;-70
2021/07/03 00:04:52;;;;;;;5.07;3.28;;;;;;;;;;8307339;28;20371;-70
2021/07/03 00:08:58;;;;;;;3.90;3.10;;;;;;;;;;8290544;28;20380;-69
2021/07/03 00:13:03;;;;;;;13.13;3.22;;;;;;;;;;8293377;28;20608;-70
2021/07/03 00:17:13;;;;;;;4.10;3.35;;;;;;;;;;8290874;28;20048;-70
2021/07/03 00:21:18;;;;;;;4.15;3.35;;;;;;;;;;8275258;28;20099;-69
2021/07/03 00:25:24;;;;;;;5.93;3.90;;;;;;;;;;8290235;28;20479;-69
2021/07/03 00:29:29;;;;;;;5.18;4.07;;;;;;;;;;8291278;28;20345;-70
2021/07/03 00:33:38;;;;;;;5.28;3.33;;;;;;;;;;8291940;28;20075;-69
2021/07/03 00:37:43;;;;;;;5.65;3.55;;;;;;;;;;8291334;28;20386;-70
2021/07/03 00:41:49;;;;;;;4.18;3.00;;;;;;;;;;8291403;28;20486;-70
2021/07/03 00:45:55;;;;;;;5.82;3.60;;;;;;;;;;8274496;28;20463;-70
2021/07/03 00:50:02;;;;;;;5.03;2.83;;;;;;;;;;8312880;28;20455;-70
2021/07/03 00:54:10;;;;;;;5.95;3.33;;;;;;;;;;8322779;28;20462;-69
2021/07/03 00:58:18;;;;;;;4.38;3.13;;;;;;;;;;8305841;28;20352;-70
2021/07/03 01:02:22;;;;;;;6.75;3.67;;;;;;;;;;8306652;28;20044;-70
2021/07/03 01:06:29;;;;;;;4.47;3.58;;;;;;;;;;8322416;28;20516;-70
2021/07/03 01:10:35;;;;;;;5.70;3.58;;;;;;;;;;8322767;28;20383;-70
2021/07/03 01:14:51;;;;;;;5.63;3.83;;;;;;;;;;8321621;28;20474;-70
2021/07/03 01:19:05;;;;;;;9.85;4.40;;;;;;;;;;8323043;28;20485;-70
2021/07/03 01:23:11;;;;;;;5.90;4.15;;;;;;;;;;8323028;28;20482;-70
2021/07/03 01:27:16;;;;;;;6.55;4.00;;;;;;;;;;8323234;28;20494;-70
2021/07/03 01:31:24;;;;;;;5.05;4.00;;;;;;;;;;8323193;28;20370;-70
2021/07/03 01:35:33;;;;;;;7.32;4.38;;;;;;;;;;8323690;28;20067;-70
2021/07/03 01:39:52;;;;;;;9.88;4.25;;;;;;;;;;8322484;28;20463;-70
2021/07/03 01:43:57;;;;;;;6.07;4.28;;;;;;;;;;8307393;28;20075;-70
2021/07/03 01:48:03;;;;;;;12.48;5.20;;;;;;;;;;8321011;28;20518;-70
2021/07/03 01:52:11;;;;;;;8.82;4.70;;;;;;;;;;8322505;28;20422;-70
2021/07/03 01:56:17;;;;;;;7.25;4.57;;;;;;;;;;8323205;28;20072;-70
2021/07/03 02:00:23;;;;;;;6.35;4.18;;;;;;;;;;8304974;28;20375;-70
2021/07/03 02:04:43;;;;;;;6.40;4.53;;;;;;;;;;8304982;28;20501;-70
2021/07/03 02:08:52;;;;;;;6.95;4.70;;;;;;;;;;8325294;28;20477;-70
2021/07/03 02:12:59;;;;;;;7.72;5.10;;;;;;;;;;8304002;28;20471;-70
2021/07/03 02:17:11;;;;;;;7.97;5.13;;;;;;;;;;8288262;28;20363;-71
2021/07/03 02:21:19;;;;;;;6.65;4.85;;;;;;;;;;8320819;28;20407;-70
2021/07/03 02:25:24;;;;;;;6.72;4.75;;;;;;;;;;8321488;28;20036;-69
2021/07/03 02:29:37;;;;;;;9.40;4.82;;;;;;;;;;8305532;28;20367;-70
2021/07/03 02:33:42;;;;;;;5.68;4.72;;;;;;;;;;8330476;28;20331;-69
2021/07/03 02:37:51;;;;;;;6.20;4.47;;;;;;;;;;8327488;28;20074;-69
2021/07/03 02:41:58;;;;;;;10.97;5.60;;;;;;;;;;8327796;28;20471;-70
2021/07/03 02:46:05;;;;;;;8.98;6.30;;;;;;;;;;8328274;28;20367;-70
2021/07/03 02:50:14;;;;;;;8.95;6.15;;;;;;;;;;8260723;28;20067;-69
2021/07/03 02:54:20;;;;;;;12.23;7.10;;;;;;;;;;8245039;28;20052;-70
2021/07/03 02:58:25;;;;;;;10.30;6.93;;;;;;;;;;8260989;28;20364;-70
2021/07/03 03:02:33;;;;;;;8.05;6.15;;;;;;;;;;8260541;28;20056;-70
2021/07/03 03:06:39;;;;;;;12.20;6.63;;;;;;;;;;8244862;28;20367;-69
2021/07/03 03:10:45;;;;;;;11.95;6.45;;;;;;;;;;8262284;28;20473;-70
2021/07/03 03:14:52;;;;;;;8.95;6.28;;;;;;;;;;8260474;28;20452;-69
2021/07/03 03:18:56;;;;;;;8.90;6.82;;;;;;;;;;8229035;28;20475;-71
2021/07/03 03:23:06;;;;;;;11.30;7.07;;;;;;;;;;8261386;28;20075;-69
2021/07/03 03:27:13;;;;;;;8.98;6.82;;;;;;;;;;8260106;28;20505;-70
2021/07/03 03:31:21;;;;;;;10.90;7.47;;;;;;;;;;8259882;28;20075;-69
2021/07/03 03:35:30;;;;;;;12.55;6.82;;;;;;;;;;8259062;28;20493;-70
2021/07/03 03:39:39;;;;;;;9.77;6.00;;;;;;;;;;8245802;28;20049;-71
2021/07/03 03:43:44;;;;;;;11.20;5.65;;;;;;;;;;8260759;28;20322;-71
2021/07/03 03:47:50;;;;;;;9.85;6.28;;;;;;;;;;8287185;28;20052;-69
2021/07/03 03:51:56;;;;;;;8.15;5.72;;;;;;;;;;8291941;28;20347;-69
2021/07/03 03:56:03;;;;;;;8.15;6.10;;;;;;;;;;8326459;28;20051;-70
2021/07/03 04:00:14;;;;;;;8.43;5.47;;;;;;;;;;8325487;28;20344;-69
2021/07/03 04:04:20;;;;;;;7.37;5.63;;;;;;;;;;8325842;28;20351;-69
2021/07/03 04:08:25;;;;;;;12.18;6.20;;;;;;;;;;8324472;28;20330;-71
2021/07/03 04:12:31;;;;;;;12.60;5.38;;;;;;;;;;8308127;28;20048;-69
2021/07/03 04:16:37;;;;;;;10.02;5.93;;;;;;;;;;8325566;28;20066;-70
2021/07/03 04:20:44;;;;;;;7.65;5.63;;;;;;;;;;8325310;28;20348;-70
2021/07/03 04:24:49;;;;;;;8.80;5.20;;;;;;;;;;8323904;28;20460;-69
2021/07/03 04:28:55;;;;;;;13.25;5.72;;;;;;;;;;8308227;28;20446;-70
2021/07/03 04:33:01;;;;;;;15.48;6.65;;;;;;;;;;8325080;28;20374;-71
2021/07/03 04:37:06;;;;;;;6.50;5.30;;;;;;;;;;8323457;28;20468;-70
2021/07/03 04:41:10;;;;;;;8.90;5.40;;;;;;;;;;8323981;28;20335;-70
2021/07/03 04:45:16;;;;;;;10.50;5.20;;;;;;;;;;8325396;28;20466;-69
2021/07/03 04:49:22;;;;;;;9.40;4.93;;;;;;;;;;8323029;28;20359;-69
2021/07/03 04:53:28;;;;;;;8.38;4.20;;;;;;;;;;8322453;28;20477;-70
2021/07/03 04:57:35;;;;;;;8.40;4.50;;;;;;;;;;8324427;28;20044;-70
2021/07/03 05:01:41;;;;;;;6.53;4.25;;;;;;;;;;8322915;28;20459;-69
2021/07/03 05:05:47;;;;;;;8.30;4.05;;;;;;;;;;8326014;28;20332;-69
2021/07/03 05:09:52;;;;;;;6.03;4.13;;;;;;;;;;8322872;28;20358;-71
2021/07/03 05:13:57;;;;;;;6.85;4.22;;;;;;;;;;8327638;28;20354;-69
2021/07/03 05:18:04;;;;;;;5.85;3.40;;;;;;;;;;8322165;28;20478;-69
2021/07/03 05:22:09;;;;;;;5.78;3.42;;;;;;;;;;8323829;28;20474;-70
2021/07/03 05:26:15;;;;;;;4.28;3.10;;;;;;;;;;8321858;28;20055;-70
2021/07/03 05:30:20;;;;;;;4.72;3.53;;;;;;;;;;8323462;28;20661;-70
2021/07/03 05:34:25;;;;;;;9.55;3.50;;;;;;;;;;8323493;28;20497;-70
2021/07/03 05:38:39;;;;;;;5.30;3.55;;;;;;;;;;8323211;28;20362;-70
2021/07/03 05:42:46;;;;;;;6.28;3.55;;;;;;;;;;8322610;28;20397;-69
2021/07/03 05:46:52;;;;;;;5.22;3.65;;;;;;;;;;8322778;28;20051;-70
2021/07/03 05:50:58;;;;;;;6.93;3.78;;;;;;;;;;8321424;28;20505;-69
2021/07/03 05:55:03;;;;;;;5.43;2.80;;;;;;;;;;8323113;28;20484;-70
2021/07/03 05:59:09;;;;;;;4.28;2.80;;;;;;;;;;8321935;28;20474;-67
2021/07/03 06:03:14;;;;;;;9.23;3.42;;;;;;;;;;8325090;28;20409;-70
2021/07/03 06:07:19;;;;;;;3.97;2.80;;;;;;;;;;8327439;28;20036;-69
2021/07/03 06:11:24;;;;;;;4.30;2.65;;;;;;;;;;8330428;28;20067;-71
2021/07/03 06:15:30;;;;;;;6.65;2.97;;;;;;;;;;8326887;28;20517;-70
2021/07/03 06:19:35;;;;;;;5.35;2.90;;;;;;;;;;8330284;28;20067;-70
2021/07/03 06:23:40;;;;;;;7.85;3.33;;;;;;;;;;8329706;28;20070;-69
2021/07/03 06:27:45;;;;;;;6.57;3.65;;;;;;;;;;8329201;28;20044;-69
2021/07/03 06:31:51;;;;;;;5.43;3.00;;;;;;;;;;8329255;28;20496;-69
2021/07/03 06:35:56;;;;;;;9.25;2.88;;;;;;;;;;8310082;28;20385;-70
2021/07/03 06:40:02;;;;;;;9.00;3.17;;;;;;;;;;8328638;28;20474;-70
2021/07/03 06:44:07;;;;;;;4.72;3.05;;;;;;;;;;8328634;28;20074;-70
2021/07/03 06:48:12;;;;;;;6.43;2.63;;;;;;;;;;8325602;28;20389;-69
2021/07/03 06:52:17;;;;;;;5.13;2.85;;;;;;;;;;8326906;28;20059;-70
2021/07/03 06:56:22;;;;;;;5.97;2.72;;;;;;;;;;8327326;28;20370;-69
2021/07/03 07:00:27;;;;;;;6.20;3.28;;;;;;;;;;8328176;28;20036;-69
2021/07/03 07:04:32;;;;;;;12.13;5.78;;;;;;;;;;8327341;28;20052;-68
2021/07/03 07:08:38;;;;;;;12.85;5.32;;;;;;;;;;8325887;28;20071;-70
2021/07/03 07:12:43;;;;;;;8.52;3.30;;;;;;;;;;8327095;28;20489;-69
2021/07/03 07:16:49;;;;;;;4.43;2.97;;;;;;;;;;8326320;28;20367;-70
2021/07/03 07:20:54;;;;;;;11.32;3.50;;;;;;;;;;8325704;28;20366;-71
2021/07/03 07:24:59;;;;;;;4.72;2.80;;;;;;;;;;8324544;28;20381;-69
2021/07/03 07:29:06;;;;;;;4.75;2.60;;;;;;;;;;8326944;28;20581;-70
2021/07/03 07:33:11;;;;;;;4.47;2.95;;;;;;;;;;8324627;28;20463;-70
2021/07/03 07:37:16;;;;;;;5.60;2.30;;;;;;;;;;8327230;28;20489;-70
2021/07/03 07:41:21;;;;;;;6.25;3.05;;;;;;;;;;8327175;28;20485;-70
2021/07/03 07:45:28;;;;;;;5.57;2.83;;;;;;;;;;8327960;28;20481;-69
2021/07/03 07:49:33;;;;;;;6.90;3.20;;;;;;;;;;8326269;28;20371;-71
2021/07/03 07:53:38;;;;;;;4.10;2.63;;;;;;;;;;8326896;28;20451;-71
2021/07/03 07:57:44;;;;;;;6.57;3.35;;;;;;;;;;8325861;28;20516;-69
2021/07/03 08:01:49;;;;;;;6.80;2.47;;;;;;;;;;8324325;28;20346;-70
2021/07/03 08:05:55;;;;;;;5.32;2.92;;;;;;;;;;8324701;28;20479;-69
2021/07/03 08:10:00;;;;;;;4.07;2.55;;;;;;;;;;8326735;28;20059;-70
2021/07/03 08:14:05;;;;;;;7.30;2.80;;;;;;;;;;8325514;28;20490;-70
2021/07/03 08:18:10;;;;;;;8.13;3.38;;;;;;;;;;8324674;28;20044;-69
2021/07/03 08:22:17;;;;;;;9.35;5.30;;;;;;;;;;8307363;28;20066;-69
2021/07/03 08:26:22;;;;;;;5.85;3.53;;;;;;;;;;8324500;28;20462;-68
2021/07/03 08:30:31;;;;;;;11.65;3.20;;;;;;;;;;8324231;28;20368;-69
2021/07/03 08:34:37;;;;;;;6.35;3.88;;;;;;;;;;8322462;28;20420;-68
2021/07/03 08:38:42;;;;;;;6.80;4.78;;;;;;;;;;8324511;28;20467;-69
2021/07/03 08:42:48;;;;;;;6.95;3.15;;;;;;;;;;8325309;28;20059;-70
2021/07/03 08:46:53;;;;;;;9.35;4.13;;;;;;;;;;8322716;28;20525;-71
2021/07/03 08:51:00;;;;;;;8.65;3.58;;;;;;;;;;8325839;28;20367;-69
2021/07/03 08:55:16;;;;;;;8.25;4.93;;;;;;;;;;8324100;28;20056;-69
2021/07/03 08:59:22;;;;;;;4.72;3.13;;;;;;;;;;8325515;28;20362;-69
2021/07/03 09:03:27;;;;;;;7.35;3.92;;;;;;;;;;8324500;28;20370;-70
2021/07/03 09:07:35;;;;;;;10.52;3.50;;;;;;;;;;8324205;28;20477;-70
2021/07/03 09:11:40;;;;;;;6.80;3.45;;;;;;;;;;8325754;28;20363;-70
2021/07/03 09:15:46;;;;;;;7.10;3.15;;;;;;;;;;8323474;28;20505;-69
2021/07/03 09:19:53;;;;;;;7.97;3.53;;;;;;;;;;8321886;28;20359;-69
2021/07/03 09:24:12;;;;;;;5.07;3.35;;;;;;;;;;8324140;28;20497;-69
2021/07/03 09:28:22;;;;;;;5.45;2.97;;;;;;;;;;8320856;28;20401;-69
2021/07/03 09:32:28;;;;;;;8.40;3.10;;;;;;;;;;8321753;28;20458;-69
2021/07/03 09:36:33;;;;;;;5.47;3.30;;;;;;;;;;8322100;28;20052;-69
2021/07/03 09:40:39;;;;;;;7.63;2.97;;;;;;;;;;8323901;28;20350;-69
2021/07/03 09:44:44;;;;;;;4.72;2.58;;;;;;;;;;8321271;28;20584;-69
2021/07/03 09:48:53;;;;;;;5.32;2.70;;;;;;;;;;8304247;28;20505;-69
2021/07/03 09:53:02;;;;;;;8.10;3.20;;;;;;;;;;8321616;28;20500;-69
2021/07/03 09:57:08;;;;;;;5.55;2.30;;;;;;;;;;8322694;28;20467;-69
2021/07/03 10:01:13;;;;;;;7.30;2.78;;;;;;;;;;8304878;28;20529;-69
2021/07/03 10:05:21;;;;;;;5.50;2.83;;;;;;;;;;8323757;28;20493;-69
2021/07/03 10:09:26;;;;;;;;;;;;;;;;;;8322362;28;20044;-69
2021/07/03 10:13:34;;;;;;;6.07;2.90;;;;;;;;;;8322504;28;19920;-69
2021/07/03 10:17:40;;;;;;;4.75;3.03;;;;;;;;;;8322166;28;20463;-69
2021/07/03 10:21:46;;;;;;;8.30;3.40;;;;;;;;;;8319299;28;20367;-69
2021/07/03 10:25:52;;;;;;;7.20;3.33;;;;;;;;;;8324062;28;20453;-69
2021/07/03 10:30:01;;;;;;;10.48;3.70;;;;;;;;;;8323655;28;20075;-70
2021/07/03 10:34:06;;;;;;;5.82;3.33;;;;;;;;;;8320395;28;20381;-69
2021/07/03 10:38:26;;;;;;;6.00;3.28;;;;;;;;;;8322303;28;20489;-71
2021/07/03 10:42:34;;;;;;;8.98;3.20;;;;;;;;;;8321904;28;20057;-69
2021/07/03 10:46:43;;;;;;;5.25;3.05;;;;;;;;;;8321199;28;20074;-70
2021/07/03 10:50:50;;;;;;;9.27;3.28;;;;;;;;;;8323996;28;20340;-69
2021/07/03 10:55:03;;;;;;;8.45;3.15;;;;;;;;;;8326906;28;20458;-69
2021/07/03 10:59:12;;;;;;;9.50;4.20;;;;;;;;;;8329057;28;20074;-69
2021/07/03 11:03:21;;;;;;;7.72;4.05;;;;;;;;;;8326918;28;20903;-70
2021/07/03 11:07:36;;;;;;;7.00;3.60;;;;;;;;;;8328350;28;20439;-69
2021/07/03 11:11:41;;;;;;;5.45;3.53;;;;;;;;;;8327885;28;20572;-69
2021/07/03 11:15:46;;;;;;;8.82;3.75;;;;;;;;;;8326274;28;20449;-70
2021/07/03 11:19:53;;;;;;;6.57;3.40;;;;;;;;;;8328003;28;20062;-69
2021/07/03 11:24:00;;;;;;;6.72;3.72;;;;;;;;;;8326514;28;20501;-69
2021/07/03 11:28:06;;;;;;;9.80;3.72;;;;;;;;;;8324069;28;20348;-69
2021/07/03 11:32:11;;;;;;;5.10;3.55;;;;;;;;;;8327020;28;20083;-70
2021/07/03 11:36:17;;;;;;;5.57;3.33;;;;;;;;;;8328773;28;20481;-69
2021/07/03 11:40:27;;;;;;;4.45;3.50;;;;;;;;;;8326445;28;20383;-69
2021/07/03 11:44:33;;;;;;;7.30;4.18;;;;;;;;;;8325970;28;20337;-69
2021/07/03 11:48:37;;;;;;;7.25;3.72;;;;;;;;;;8327477;28;20490;-71
2021/07/03 11:52:45;;;;;;;8.77;5.15;;;;;;;;;;8326856;28;20074;-70
2021/07/03 11:56:58;;;;;;;9.30;4.25;;;;;;;;;;8326603;28;20483;-70
2021/07/03 12:01:10;;;;;;;11.32;4.68;;;;;;;;;;8324703;28;20459;-70
2021/07/03 12:05:23;;;;;;;9.73;4.22;;;;;;;;;;8324050;28;20471;-70
2021/07/03 12:09:36;;;;;;;8.57;3.80;;;;;;;;;;8328030;28;20397;-70
2021/07/03 12:13:56;;;;;;;6.55;4.18;;;;;;;;;;8323603;28;20044;-70
2021/07/03 12:18:00;;;;;;;5.63;4.28;;;;;;;;;;8326291;28;20481;-69
2021/07/03 12:22:06;;;;;;;6.55;4.78;;;;;;;;;;8326775;28;20455;-69
2021/07/03 12:26:12;;;;;;;6.60;3.90;;;;;;;;;;8325671;28;20340;-69
2021/07/03 12:30:21;;;;;;;6.43;4.45;;;;;;;;;;8322622;28;20490;-69
2021/07/03 12:34:40;;;;;;;6.03;3.88;;;;;;;;;;8324423;28;20371;-69
2021/07/03 12:38:45;;;;;;;;;;;;;;;;;;8322736;28;20493;-69
2021/07/03 12:43:00;;;;;;;7.72;4.72;;;;;;;;;;8323963;28;20243;-69
2021/07/03 12:47:17;;;;;;;6.72;4.38;;;;;;;;;;8324464;28;20478;-69
2021/07/03 12:51:36;;;;;;;11.98;5.03;;;;;;;;;;8322784;28;20493;-69
2021/07/03 12:55:47;;;;;;;9.43;4.70;;;;;;;;;;8324611;28;20402;-71
2021/07/03 13:00:01;;;;;;;9.82;4.90;;;;;;;;;;8321925;28;20048;-71
2021/07/03 13:04:08;;;;;;;9.25;4.90;;;;;;;;;;8321710;28;20355;-70
2021/07/03 13:08:12;;;;;;;9.07;4.85;;;;;;;;;;8321101;28;20070;-69
2021/07/03 13:12:18;;;;;;;7.43;4.65;;;;;;;;;;8324151;28;20459;-71
2021/07/03 13:16:23;;;;;;;9.32;4.80;;;;;;;;;;8324557;28;20346;-70
2021/07/03 13:20:29;;;;;;;11.52;5.80;;;;;;;;;;8323947;28;20048;-70
2021/07/03 13:24:34;;;;;;;8.02;5.50;;;;;;;;;;8323747;28;20074;-69
2021/07/03 13:28:40;;;;;;;8.52;5.07;;;;;;;;;;8323951;28;20517;-71
2021/07/03 13:32:46;;;;;;;6.85;5.07;;;;;;;;;;8325269;28;20363;-69
2021/07/03 13:36:52;;;;;;;6.85;4.68;;;;;;;;;;8323199;28;20070;-70
2021/07/03 13:40:58;;;;;;;11.60;5.03;;;;;;;;;;8321606;28;20469;-70
2021/07/03 13:45:04;;;;;;;7.18;4.75;;;;;;;;;;8320632;28;20036;-70
2021/07/03 13:49:09;;;;;;;5.95;5.00;;;;;;;;;;8322442;28;20536;-70
2021/07/03 13:53:15;;;;;;;8.52;4.75;;;;;;;;;;8322549;28;20070;-71
2021/07/03 13:57:20;;;;;;;7.75;4.88;;;;;;;;;;8325024;28;20366;-70
2021/07/03 14:01:25;;;;;;;8.27;5.20;;;;;;;;;;8322136;28;20070;-69
2021/07/03 14:05:30;;;;;;;15.95;5.35;;;;;;;;;;8322628;28;20348;-70
2021/07/03 14:09:35;;;;;;;12.60;6.03;;;;;;;;;;8321254;28;20474;-70
2021/07/03 14:13:41;;;;;;;10.23;5.85;;;;;;;;;;8320923;28;20048;-70
2021/07/03 14:17:46;;;;;;;7.05;4.88;;;;;;;;;;8321900;28;20425;-70
2021/07/03 14:21:52;;;;;;;8.20;4.80;;;;;;;;;;8322729;28;20390;-70
2021/07/03 14:25:58;;;;;;;8.18;4.38;;;;;;;;;;8325806;28;20370;-70
2021/07/03 14:30:06;;;;;;;8.82;4.63;;;;;;;;;;8327935;28;20036;-70
2021/07/03 14:34:11;;;;;;;10.93;4.85;;;;;;;;;;8329637;28;20067;-70
2021/07/03 14:38:16;;;;;;;6.68;4.90;;;;;;;;;;8328920;28;20485;-69
2021/07/03 14:42:22;;;;;;;8.60;4.45;;;;;;;;;;8326821;28;20501;-70
2021/07/03 14:46:25;;;;;;;9.45;5.07;;;;;;;;;;8330184;28;20040;-69
2021/07/03 14:50:33;;;;;;;9.45;4.57;;;;;;;;;;8330548;28;20374;-70
2021/07/03 14:54:37;;;;;;;6.90;4.22;;;;;;;;;;8329099;28;20070;-71
2021/07/03 14:58:42;;;;;;;6.68;3.78;;;;;;;;;;8328925;28;20355;-70
2021/07/03 15:02:47;;;;;;;8.30;3.88;;;;;;;;;;8327905;28;20048;-70
2021/07/03 15:06:52;;;;;;;8.43;4.18;;;;;;;;;;8328521;28;20043;-71
2021/07/03 15:10:56;;;;;;;6.85;3.85;;;;;;;;;;8325975;28;20463;-70
2021/07/03 15:15:01;;;;;;;11.88;3.90;;;;;;;;;;8328443;28;20044;-70
2021/07/03 15:19:07;;;;;;;6.70;3.85;;;;;;;;;;8327645;28;20084;-70
2021/07/03 15:23:12;;;;;;;9.88;4.25;;;;;;;;;;8328254;28;20479;-70
2021/07/03 15:27:18;;;;;;;10.68;4.03;;;;;;;;;;8326106;28;20340;-70
2021/07/03 15:31:23;;;;;;;6.63;3.88;;;;;;;;;;8324916;28;20459;-70
2021/07/03 15:35:29;;;;;;;10.85;4.18;;;;;;;;;;8328459;28;20489;-70
2021/07/03 15:39:34;;;;;;;6.22;3.65;;;;;;;;;;8326144;28;20375;-70
2021/07/03 15:43:40;;;;;;;7.00;3.10;;;;;;;;;;8325759;28;20371;-70
2021/07/03 15:47:45;;;;;;;5.47;3.30;;;;;;;;;;8326475;28;20328;-69
2021/07/03 15:51:51;;;;;;;6.05;3.67;;;;;;;;;;8326482;28;20490;-69
2021/07/03 15:55:56;;;;;;;11.55;3.80;;;;;;;;;;8326040;28;20377;-69
2021/07/03 16:00:03;;;;;;;6.85;3.78;;;;;;;;;;8325975;28;20048;-70
2021/07/03 16:04:14;;;;;;;4.75;3.20;;;;;;;;;;8327460;28;20043;-70
2021/07/03 16:08:19;;;;;;;5.20;3.53;;;;;;;;;;8326028;28;20074;-70
2021/07/03 16:12:24;;;;;;;6.53;3.53;;;;;;;;;;8326136;28;20056;-70
2021/07/03 16:16:30;;;;;;;6.40;4.25;;;;;;;;;;8325300;28;20381;-69
2021/07/03 16:20:36;;;;;;;7.50;4.45;;;;;;;;;;8326218;28;20415;-69
2021/07/03 16:24:41;;;;;;;8.45;4.47;;;;;;;;;;8325127;28;20483;-70
2021/07/03 16:28:47;;;;;;;5.70;3.35;;;;;;;;;;8323175;28;20444;-70
2021/07/03 16:32:53;;;;;;;7.70;4.10;;;;;;;;;;8325563;28;20048;-71
2021/07/03 16:36:58;;;;;;;5.97;4.00;;;;;;;;;;8324548;28;20475;-69
2021/07/03 16:41:07;;;;;;;5.28;3.45;;;;;;;;;;8325810;28;20416;-69
2021/07/03 16:45:13;;;;;;;8.45;4.45;;;;;;;;;;8324685;28;20463;-70
2021/07/03 16:49:17;;;;;;;7.97;4.28;;;;;;;;;;8323329;28;20351;-70
2021/07/03 16:53:22;;;;;;;7.63;4.40;;;;;;;;;;8324652;28;20401;-69
2021/07/03 16:57:28;;;;;;;12.75;5.38;;;;;;;;;;8322294;28;20516;-69
2021/07/03 17:01:33;;;;;;;11.18;5.63;;;;;;;;;;8323920;28;20039;-69
2021/07/03 17:05:39;;;;;;;8.90;5.45;;;;;;;;;;8324300;28;20375;-69
2021/07/03 17:09:44;;;;;;;9.35;5.40;;;;;;;;;;8327126;28;20478;-69
2021/07/03 17:13:51;;;;;;;214.95;107.38;;;;;;;;;;8323852;28;20483;-70
2021/07/03 17:17:57;;;;;;;39.25;22.55;;;;;;;;;;8322216;28;20394;-70
2021/07/03 17:22:02;;;;;;;23.17;12.48;;;;;;;;;;8323265;28;20367;-69
2021/07/03 17:26:08;;;;;;;12.73;5.93;;;;;;;;;;8325262;28;20481;-70
2021/07/03 17:30:17;;;;;;;9.43;4.75;;;;;;;;;;8322061;28;20486;-70
2021/07/03 17:34:22;;;;;;;9.55;4.95;;;;;;;;;;8324098;28;20328;-69
2021/07/03 17:38:28;;;;;;;5.72;4.30;;;;;;;;;;8325161;28;20044;-69
2021/07/03 17:42:33;;;;;;;11.15;4.50;;;;;;;;;;8323362;28;20482;-69
2021/07/03 17:46:38;;;;;;;7.35;5.75;;;;;;;;;;8322901;28;20339;-70
2021/07/03 17:50:42;;;;;;;8.32;6.18;;;;;;;;;;8323244;28;20483;-69
2021/07/03 17:54:47;;;;;;;10.60;6.07;;;;;;;;;;8323022;28;20576;-68
2021/07/03 17:58:52;;;;;;;15.43;7.65;;;;;;;;;;8322746;28;20466;-69
2021/07/03 18:02:57;;;;;;;44.33;18.40;;;;;;;;;;8325039;28;20362;-69
2021/07/03 18:07:02;;;;;;;18.00;9.00;;;;;;;;;;8322670;28;20482;-69
2021/07/03 18:11:07;;;;;;;17.15;8.10;;;;;;;;;;8321958;28;20044;-69
2021/07/03 18:15:13;;;;;;;35.03;16.60;;;;;;;;;;8321868;28;20467;-68
2021/07/03 18:19:18;;;;;;;47.75;23.23;;;;;;;;;;8321873;28;20356;-69
2021/07/03 18:23:22;;;;;;;52.72;30.80;;;;;;;;;;8338160;28;20462;-69
2021/07/03 18:27:28;;;;;;;31.63;17.45;;;;;;;;;;8321491;28;20347;-68
2021/07/03 18:31:33;;;;;;;10.20;7.00;;;;;;;;;;8322238;28;20393;-68
2021/07/03 18:35:38;;;;;;;13.40;6.93;;;;;;;;;;8322786;28;20406;-68
2021/07/03 18:39:42;;;;;;;7.68;5.05;;;;;;;;;;8320006;28;20165;-70
2021/07/03 18:43:50;;;;;;;;;;;;;;;;;;8322288;28;20405;-68
2021/07/03 18:47:55;;;;;;;13.60;5.97;;;;;;;;;;8321836;28;20224;-67
2021/07/03 18:52:00;;;;;;;9.65;5.85;;;;;;;;;;8320792;28;20347;-68
2021/07/03 18:56:06;;;;;;;10.75;6.20;;;;;;;;;;8321027;28;20358;-69
2021/07/03 19:00:13;;;;;;;9.38;5.32;;;;;;;;;;8325341;28;20324;-68
2021/07/03 19:04:18;;;;;;;10.33;5.73;;;;;;;;;;8321750;28;20048;-69
2021/07/03 19:08:23;;;;;;;21.27;12.15;;;;;;;;;;8321728;28;20358;-70
2021/07/03 19:12:30;;;;;;;14.40;9.77;;;;;;;;;;8325471;28;20478;-69
2021/07/03 19:16:35;;;;;;;17.73;11.43;;;;;;;;;;8327093;28;20482;-69
2021/07/03 19:20:41;;;;;;;16.33;10.23;;;;;;;;;;8325717;28;20355;-69
2021/07/03 19:24:46;;;;;;;13.77;8.77;;;;;;;;;;8328664;28;20493;-69
2021/07/03 19:28:51;;;;;;;13.07;6.65;;;;;;;;;;8327892;28;20576;-68
2021/07/03 19:32:58;;;;;;;31.90;19.25;;;;;;;;;;8326404;28;20350;-69
2021/07/03 19:37:03;;;;;;;33.13;18.02;;;;;;;;;;8324438;28;20529;-70
2021/07/03 19:41:10;;;;;;;15.88;7.50;;;;;;;;;;8326285;28;20325;-70
2021/07/03 19:45:19;;;;;;;11.68;5.82;;;;;;;;;;8326963;28;20485;-70
2021/07/03 19:49:25;;;;;;;8.30;4.70;;;;;;;;;;8326207;28;20472;-69
2021/07/03 19:53:30;;;;;;;12.90;6.25;;;;;;;;;;8324771;28;20489;-70
2021/07/03 19:57:36;;;;;;;8.93;4.78;;;;;;;;;;8327217;28;20461;-69
2021/07/03 20:01:42;;;;;;;6.82;3.83;;;;;;;;;;8327300;28;20044;-70
2021/07/03 20:05:47;;;;;;;5.18;3.53;;;;;;;;;;8325159;28;20374;-67
2021/07/03 20:09:52;;;;;;;7.95;4.15;;;;;;;;;;8325541;28;20044;-69
2021/07/03 20:13:58;;;;;;;11.25;5.10;;;;;;;;;;8325871;28;20478;-70
2021/07/03 20:18:06;;;;;;;6.65;4.28;;;;;;;;;;8325891;28;20408;-69
2021/07/03 20:22:10;;;;;;;10.33;4.80;;;;;;;;;;8325873;28;20337;-68
2021/07/03 20:26:20;;;;;;;9.02;5.32;;;;;;;;;;8324950;28;20044;-69
2021/07/03 20:30:26;;;;;;;9.88;6.00;;;;;;;;;;8325689;28;20386;-70
2021/07/03 20:34:37;;;;;;;10.15;5.93;;;;;;;;;;8324453;28;20075;-70
2021/07/03 20:38:43;;;;;;;9.13;5.75;;;;;;;;;;8324503;28;20379;-69
2021/07/03 20:42:52;;;;;;;9.65;6.50;;;;;;;;;;8324555;28;20052;-69
2021/07/03 20:46:56;;;;;;;9.13;6.53;;;;;;;;;;8305759;28;20052;-70
2021/07/03 20:51:00;;;;;;;10.55;6.45;;;;;;;;;;8323088;28;20478;-69
2021/07/03 20:55:07;;;;;;;13.50;6.20;;;;;;;;;;8323376;28;20443;-69
2021/07/03 20:59:12;;;;;;;13.30;5.95;;;;;;;;;;8322555;28;20475;-70
2021/07/03 21:03:20;;;;;;;9.35;6.18;;;;;;;;;;8325027;28;20343;-69
2021/07/03 21:07:26;;;;;;;21.27;12.90;;;;;;;;;;8323404;28;20063;-70
2021/07/03 21:11:32;;;;;;;13.70;7.28;;;;;;;;;;8324518;28;20497;-70
2021/07/03 21:15:37;;;;;;;12.30;6.30;;;;;;;;;;8304952;28;20070;-70
2021/07/03 21:19:43;;;;;;;8.10;5.40;;;;;;;;;;8322635;28;20052;-71
2021/07/03 21:23:49;;;;;;;12.48;7.10;;;;;;;;;;8324671;28;20074;-70
2021/07/03 21:27:55;;;;;;;11.40;6.20;;;;;;;;;;8321341;28;20490;-74
2021/07/03 21:32:00;;;;;;;9.27;5.90;;;;;;;;;;8323463;28;20467;-70
2021/07/03 21:36:06;;;;;;;7.30;5.15;;;;;;;;;;8320920;28;20487;-70
2021/07/03 21:40:17;;;;;;;14.15;6.20;;;;;;;;;;8321244;28;20459;-70
2021/07/03 21:44:21;;;;;;;11.82;4.55;;;;;;;;;;8321801;28;20450;-70
2021/07/03 21:48:25;;;;;;;7.43;4.55;;;;;;;;;;8323249;28;20482;-71
2021/07/03 21:52:31;;;;;;;9.07;4.75;;;;;;;;;;8321446;28;20336;-70
2021/07/03 21:56:36;;;;;;;5.97;4.63;;;;;;;;;;8324223;28;20417;-69
2021/07/03 22:00:47;;;;;;;7.15;4.70;;;;;;;;;;8321494;28;20371;-70
2021/07/03 22:04:52;;;;;;;9.95;4.78;;;;;;;;;;8324248;28;20447;-70
2021/07/03 22:08:58;;;;;;;14.25;7.90;;;;;;;;;;8324228;28;20461;-70
2021/07/03 22:13:04;;;;;;;15.18;7.68;;;;;;;;;;8323058;28;20048;-69
2021/07/03 22:17:09;;;;;;;8.75;5.68;;;;;;;;;;8304666;28;20070;-70
2021/07/03 22:21:19;;;;;;;17.92;11.32;;;;;;;;;;8323029;28;20448;-70
2021/07/03 22:25:24;;;;;;;7.93;4.88;;;;;;;;;;8325951;28;20371;-69
2021/07/03 22:29:29;;;;;;;8.77;5.70;;;;;;;;;;8323701;28;20378;-70
2021/07/03 22:33:35;;;;;;;6.18;4.55;;;;;;;;;;8304123;28;20091;-69
2021/07/03 22:37:41;;;;;;;7.22;4.78;;;;;;;;;;8320516;28;20062;-70
2021/07/03 22:41:46;;;;;;;12.23;5.22;;;;;;;;;;8323026;28;20450;-70
2021/07/03 22:45:51;;;;;;;6.53;4.97;;;;;;;;;;8322131;28;20072;-71
2021/07/03 22:49:56;;;;;;;7.75;5.35;;;;;;;;;;8326540;28;20466;-69
2021/07/03 22:54:02;;;;;;;10.85;6.57;;;;;;;;;;8330305;28;20371;-69
2021/07/03 22:58:07;;;;;;;14.48;9.95;;;;;;;;;;8330420;28;20344;-69
2021/07/03 23:02:12;;;;;;;10.10;5.70;;;;;;;;;;8327974;28;20375;-70
2021/07/03 23:06:18;;;;;;;10.85;6.20;;;;;;;;;;8328946;28;20036;-70
2021/07/03 23:10:27;;;;;;;11.68;5.75;;;;;;;;;;8326954;28;20493;-69
2021/07/03 23:14:32;;;;;;;11.02;5.90;;;;;;;;;;8326961;28;20473;-70
2021/07/03 23:18:37;;;;;;;8.27;5.13;;;;;;;;;;8329481;28;20365;-69
2021/07/03 23:22:42;;;;;;;15.35;7.00;;;;;;;;;;8327237;28;20070;-69
2021/07/03 23:26:48;;;;;;;8.15;4.75;;;;;;;;;;8327383;28;20470;-70
2021/07/03 23:30:54;;;;;;;9.93;5.43;;;;;;;;;;8327889;28;20392;-70
2021/07/03 23:34:59;;;;;;;7.40;4.75;;;;;;;;;;8325834;28;20055;-69
2021/07/03 23:39:05;;;;;;;8.50;5.75;;;;;;;;;;8326735;28;20389;-70
2021/07/03 23:43:10;;;;;;;8.50;5.20;;;;;;;;;;8326616;28;20066;-70
2021/07/03 23:47:17;;;;;;;8.48;5.68;;;;;;;;;;8324746;28;20374;-69
2021/07/03 23:51:21;;;;;;;8.48;5.90;;;;;;;;;;8326638;28;20048;-70
2021/07/03 23:55:27;;;;;;;11.75;5.35;;;;;;;;;;8326234;28;20362;-70
2021/07/03 23:59:33;;;;;;;8.52;5.55;;;;;;;;;;8326143;28;20355;-69
